METAR AND TAF INFORMATION
METAR FOR GABS
ADDS - METARS form results

(2321 UTC 01 April 2020)
Data provider http://aviationweather.gov/metar/data/
 
METAR text: GABS 012300Z 07006KT CAVOK 32/03 Q1013 NOSIG
Conditions at: GABS (BAMAKO/SENOU (MI, ML) observed 2300 UTC 01 April 2020
Temperature: 32.0°C (90°F)
Dewpoint: 3.0°C (37°F) [RH = 16%]
Pressure (altimeter): 29.91 inches Hg (1013.0 mb)
Winds: from the ENE (70 degrees) at 7 MPH (6 knots; 3.1 m/s)
Visibility: 6 or more miles (10+ km)
Ceiling: ceiling and visibility are OK
Clouds: unknown
Weather: no significant weather observed at this time

METAR text: GABS 012230Z 06006KT CAVOK 32/03 Q1012 NOSIG
Conditions at: GABS (BAMAKO/SENOU (MI, ML) observed 2230 UTC 01 April 2020
Temperature: 32.0°C (90°F)
Dewpoint: 3.0°C (37°F) [RH = 16%]
Pressure (altimeter): 29.88 inches Hg (1012.0 mb)
Winds: from the ENE (60 degrees) at 7 MPH (6 knots; 3.1 m/s)
Visibility: 6 or more miles (10+ km)
Ceiling: ceiling and visibility are OK
Clouds: unknown
Weather: no significant weather observed at this time

Forecast for: GABS (BAMAKO/SENOU (MI, ML)
Text: TAF GABS 012300Z 0200/0306 03008KT CAVOK
Forecast period: 0000 UTC 02 April 2020 to 0600 UTC 03 April 2020
Forecast type: FROM: standard forecast or significant change
Winds: from the NNE (30 degrees) at 9 MPH (8 knots; 4.1 m/s)
Visibility: 6 or more miles 10+ km)
Ceiling: unknown
Clouds: missing
Weather: NSW  (no significant weather)

 AIRPORT MAP

 RUNWAY INFORMATION
Runway 06 Runway length 8879 ft Runway width 148 ft
Runway elevation 1187 ft Runway displaced threshold 0 ft Runway heading 57
Runway 24 Runway length 8879 ft Runway width 148 ft
Runway elevation 1244 ft Runway displaced threshold 0 ft Runway heading 237

 AIRPORT FREQUENCIES
Type A/G Name A/G Frequency 667.3 MHZ
Type ACC Name ACC Frequency 119.1 MHZ
Type TWR Name TWR Frequency 118.3 MHZ

 AIRPORT NEAR NAVIGATION AIDS